Time;durP1;ratioP1;P1;durP2;ratioP2;P2;SDS_P1;SDS_P2;PMS_P1;PMS_P2;Temp;Humidity;BMP_temperature;BMP_pressure;BME280_temperature;BME280_humidity;BME280_pressure;Samples;Min_cycle;Max_cycle;Signal;HPM_P1;HPM_P2
2023/12/09 00:01:25;;;;;;;252.23;113.35;;;-1.80;99.90;;;;;;5038070;28;20017;-53
2023/12/09 00:03:51;;;;;;;256.52;120.28;;;-1.80;99.90;;;;;;5038089;28;20022;-53
2023/12/09 00:06:19;;;;;;;265.85;123.57;;;-1.80;99.90;;;;;;5037915;28;20514;-53
2023/12/09 00:08:46;;;;;;;256.73;116.35;;;-1.90;99.90;;;;;;5037794;28;20042;-53
2023/12/09 00:11:11;;;;;;;250.60;114.40;;;-1.90;99.90;;;;;;5037955;28;20060;-53
2023/12/09 00:13:37;;;;;;;262.02;115.07;;;-1.80;99.90;;;;;;5037875;28;20033;-53
2023/12/09 00:16:04;;;;;;;262.25;119.93;;;-1.80;99.90;;;;;;5037620;28;20029;-53
2023/12/09 00:18:30;;;;;;;265.05;118.85;;;-1.90;99.90;;;;;;5037643;28;20221;-53
2023/12/09 00:20:56;;;;;;;274.75;122.10;;;-2.00;99.90;;;;;;5037792;28;20026;-53
2023/12/09 00:23:22;;;;;;;288.92;129.85;;;-2.10;99.90;;;;;;5037663;28;20434;-53
2023/12/09 00:25:48;;;;;;;410.52;169.20;;;-2.10;99.90;;;;;;5037537;28;20044;-53
2023/12/09 00:28:14;;;;;;;413.45;172.35;;;-2.10;99.90;;;;;;5037580;28;20036;-53
2023/12/09 00:30:40;;;;;;;381.92;165.32;;;-2.10;99.90;;;;;;5037548;28;20098;-53
2023/12/09 00:33:07;;;;;;;403.77;175.68;;;-2.10;99.90;;;;;;5037548;28;20445;-53
2023/12/09 00:35:32;;;;;;;367.02;161.82;;;-2.00;99.90;;;;;;5037699;28;20033;-53
2023/12/09 00:37:58;;;;;;;368.58;163.02;;;-1.90;99.90;;;;;;5037205;28;20052;-53
2023/12/09 00:40:24;;;;;;;361.50;158.32;;;-1.90;99.90;;;;;;5037136;28;20033;-53
2023/12/09 00:42:50;;;;;;;407.27;172.50;;;-1.90;99.90;;;;;;5037282;28;20025;-53
2023/12/09 00:45:16;;;;;;;424.05;179.63;;;-1.90;99.90;;;;;;5037207;28;20474;-53
2023/12/09 00:47:42;;;;;;;439.40;180.15;;;-2.00;99.90;;;;;;5037232;28;20529;-53
2023/12/09 00:50:08;;;;;;;451.25;180.32;;;-2.10;99.90;;;;;;5037247;28;20364;-53
2023/12/09 00:52:34;;;;;;;435.88;174.48;;;-2.10;99.90;;;;;;5037021;28;20022;-53
2023/12/09 00:55:01;;;;;;;383.40;166.25;;;-2.20;99.90;;;;;;5037400;28;20112;-53
2023/12/09 00:57:27;;;;;;;390.33;163.00;;;-2.30;99.90;;;;;;5036923;28;20112;-53
2023/12/09 00:59:53;;;;;;;416.85;166.35;;;-2.20;99.90;;;;;;5036888;28;20026;-53
2023/12/09 01:02:19;;;;;;;404.58;161.45;;;-2.30;99.90;;;;;;5037059;28;20022;-53
2023/12/09 01:04:45;;;;;;;396.52;160.30;;;-2.30;99.90;;;;;;5036908;28;20029;-53
2023/12/09 01:07:11;;;;;;;392.23;157.13;;;-2.20;99.90;;;;;;5036781;28;20044;-53
2023/12/09 01:09:37;;;;;;;396.33;153.57;;;-2.30;99.90;;;;;;5036882;28;20438;-53
2023/12/09 01:12:03;;;;;;;404.42;159.07;;;-2.30;99.90;;;;;;5036747;28;20038;-53
2023/12/09 01:14:29;;;;;;;406.15;161.48;;;-2.20;99.90;;;;;;5037007;28;20033;-53
2023/12/09 01:16:55;;;;;;;357.27;142.77;;;-2.20;99.90;;;;;;5036578;28;20383;-53
2023/12/09 01:19:21;;;;;;;248.68;107.70;;;-2.00;99.90;;;;;;5036681;28;20021;-53
2023/12/09 01:21:47;;;;;;;221.00;94.28;;;-1.90;99.90;;;;;;5036616;28;20455;-53
2023/12/09 01:24:13;;;;;;;215.68;94.82;;;-1.80;99.90;;;;;;5036550;28;20025;-53
2023/12/09 01:26:39;;;;;;;198.90;86.13;;;-2.00;99.90;;;;;;5036350;28;20034;-53
2023/12/09 01:29:05;;;;;;;202.90;88.95;;;-2.20;99.90;;;;;;5036442;28;20045;-53
2023/12/09 01:31:31;;;;;;;182.88;82.75;;;-2.10;99.90;;;;;;5036498;28;20037;-53
2023/12/09 01:33:57;;;;;;;180.88;80.88;;;-2.20;99.90;;;;;;5036277;28;20079;-53
2023/12/09 01:36:23;;;;;;;186.02;84.28;;;-2.30;99.90;;;;;;5036028;28;20475;-53
2023/12/09 01:38:49;;;;;;;185.77;84.38;;;-2.40;99.90;;;;;;5036279;28;20057;-53
2023/12/09 01:41:15;;;;;;;176.02;82.40;;;-2.40;99.90;;;;;;5036396;28;20027;-53
2023/12/09 01:43:42;;;;;;;200.32;90.45;;;-2.40;99.90;;;;;;5036091;28;20067;-53
2023/12/09 01:46:11;;;;;;;217.38;96.75;;;-2.40;99.90;;;;;;5036147;28;20113;-53
2023/12/09 01:48:38;;;;;;;225.38;99.65;;;-2.50;99.90;;;;;;5036138;28;20022;-53
2023/12/09 01:51:05;;;;;;;239.27;106.25;;;-2.50;99.90;;;;;;5035806;28;20049;-53
2023/12/09 01:53:31;;;;;;;252.20;112.82;;;-2.60;99.90;;;;;;5035687;28;20037;-53
2023/12/09 01:55:59;;;;;;;357.35;142.32;;;-2.60;99.90;;;;;;5036014;28;20026;-53
2023/12/09 01:58:26;;;;;;;502.25;178.75;;;-2.60;99.90;;;;;;5035907;28;20036;-53
2023/12/09 02:00:53;;;;;;;549.38;198.45;;;-2.50;99.90;;;;;;5035919;28;20187;-53
2023/12/09 02:03:19;;;;;;;516.13;187.45;;;-2.50;99.90;;;;;;5035827;28;20035;-53
2023/12/09 02:05:45;;;;;;;475.83;178.90;;;-2.50;99.90;;;;;;5035859;28;20033;-53
2023/12/09 02:08:11;;;;;;;396.55;162.05;;;-2.50;99.90;;;;;;5035792;28;20029;-53
2023/12/09 02:10:38;;;;;;;402.98;168.27;;;-2.40;99.90;;;;;;5035696;28;20033;-53
2023/12/09 02:13:16;;;;;;;383.13;158.32;;;-2.50;99.90;;;;;;5035797;28;20026;-53
2023/12/09 02:15:50;;;;;;;395.50;164.60;;;-2.60;99.90;;;;;;5035661;28;20467;-53
2023/12/09 02:18:17;;;;;;;384.70;163.77;;;-2.60;99.90;;;;;;5035611;28;20383;-53
2023/12/09 02:20:43;;;;;;;384.50;162.68;;;-2.70;99.90;;;;;;5035610;28;20067;-53
2023/12/09 02:23:11;;;;;;;378.20;158.65;;;-2.80;99.90;;;;;;5035532;28;20026;-53
2023/12/09 02:25:38;;;;;;;394.50;165.20;;;-2.80;99.90;;;;;;5032793;28;20044;-53
2023/12/09 02:28:19;;;;;;;385.80;158.98;;;-2.70;99.90;;;;;;5035589;28;20136;-53
2023/12/09 02:30:55;;;;;;;373.55;145.50;;;-2.80;99.90;;;;;;5035651;28;20474;-53
2023/12/09 02:33:22;;;;;;;350.60;145.30;;;-2.80;99.90;;;;;;5035027;28;20065;-53
2023/12/09 02:35:51;;;;;;;344.90;139.80;;;-2.80;99.90;;;;;;5034877;28;20128;-53
2023/12/09 02:38:19;;;;;;;330.80;140.00;;;-2.90;99.90;;;;;;5035306;28;20036;-53
2023/12/09 02:40:46;;;;;;;290.48;121.68;;;-2.90;99.90;;;;;;5035196;28;20104;-53
2023/12/09 02:43:14;;;;;;;277.60;113.13;;;-2.90;99.90;;;;;;5034934;28;20025;-53
2023/12/09 02:45:40;;;;;;;221.85;95.25;;;-3.10;99.90;;;;;;5035190;28;20017;-53
2023/12/09 02:48:06;;;;;;;178.98;77.07;;;-3.20;99.90;;;;;;5035371;28;20380;-53
2023/12/09 02:50:32;;;;;;;179.25;79.22;;;-3.20;99.90;;;;;;5035294;28;20033;-53
2023/12/09 02:52:58;;;;;;;186.45;80.93;;;-3.10;99.90;;;;;;5035246;28;20116;-53
2023/12/09 02:55:24;;;;;;;182.35;82.65;;;-3.10;99.90;;;;;;5035134;28;20068;-53
2023/12/09 02:57:50;;;;;;;216.10;96.47;;;-3.00;99.90;;;;;;5035101;28;20033;-53
2023/12/09 03:00:16;;;;;;;228.02;98.28;;;-3.00;99.90;;;;;;5035150;28;20026;-53
2023/12/09 03:02:42;;;;;;;232.68;100.85;;;-3.00;99.90;;;;;;5035162;28;20586;-53
2023/12/09 03:05:08;;;;;;;206.45;91.85;;;-3.10;99.90;;;;;;5038047;28;20069;-53
2023/12/09 03:07:34;;;;;;;219.07;95.88;;;-3.00;99.90;;;;;;5039155;28;20033;-53
2023/12/09 03:10:00;;;;;;;229.68;102.00;;;-3.00;99.90;;;;;;5039260;28;20183;-53
2023/12/09 03:12:26;;;;;;;234.85;101.88;;;-2.90;99.90;;;;;;5039041;28;20021;-53
2023/12/09 03:14:52;;;;;;;250.63;111.00;;;-2.90;99.90;;;;;;5038869;28;20438;-53
2023/12/09 03:17:19;;;;;;;243.02;106.28;;;-2.90;99.90;;;;;;5038812;28;20097;-53
2023/12/09 03:19:45;;;;;;;331.38;134.43;;;-2.90;99.90;;;;;;5039118;28;20036;-53
2023/12/09 03:22:10;;;;;;;336.95;137.52;;;-2.90;99.90;;;;;;5038916;28;20029;-53
2023/12/09 03:24:36;;;;;;;359.90;143.85;;;-2.90;99.90;;;;;;5038779;28;20022;-53
2023/12/09 03:27:02;;;;;;;327.63;133.70;;;-2.90;99.90;;;;;;5038830;28;20506;-53
2023/12/09 03:29:28;;;;;;;326.23;135.95;;;-3.00;99.90;;;;;;5038631;28;20029;-53
2023/12/09 03:31:54;;;;;;;366.90;148.50;;;-3.10;99.90;;;;;;5038671;28;20041;-53
2023/12/09 03:34:20;;;;;;;294.35;124.25;;;-3.10;99.90;;;;;;5038680;28;20064;-53
2023/12/09 03:36:46;;;;;;;299.10;127.05;;;-3.10;99.90;;;;;;5038444;28;20029;-53
2023/12/09 03:39:12;;;;;;;292.33;124.13;;;-3.10;99.90;;;;;;5038349;28;20032;-53
2023/12/09 03:41:38;;;;;;;283.15;121.97;;;-3.20;99.90;;;;;;5038440;28;20033;-53
2023/12/09 03:44:04;;;;;;;257.20;107.40;;;-3.20;99.90;;;;;;5038379;28;20045;-53
2023/12/09 03:46:30;;;;;;;263.08;110.90;;;-3.20;99.90;;;;;;5038390;28;20494;-53
2023/12/09 03:48:56;;;;;;;264.17;113.70;;;-3.20;99.90;;;;;;5038386;28;20112;-53
2023/12/09 03:51:22;;;;;;;238.43;103.40;;;-3.20;99.90;;;;;;5038370;28;20033;-53
2023/12/09 03:53:48;;;;;;;236.65;101.88;;;-3.30;99.90;;;;;;5038161;28;20071;-53
2023/12/09 03:56:17;;;;;;;220.82;95.40;;;-3.30;99.90;;;;;;5038181;28;20035;-53
2023/12/09 03:58:43;;;;;;;193.45;86.70;;;-3.30;99.90;;;;;;5038219;28;20026;-53
2023/12/09 04:01:09;;;;;;;193.23;87.30;;;-3.30;99.90;;;;;;5037935;28;20491;-53
2023/12/09 04:03:35;;;;;;;178.95;78.00;;;-3.30;99.90;;;;;;5038114;28;20049;-53
2023/12/09 04:06:03;;;;;;;162.70;72.97;;;-3.40;99.90;;;;;;5038076;28;20479;-53
2023/12/09 04:08:29;;;;;;;175.38;80.35;;;-3.40;99.90;;;;;;5037901;28;20065;-53
2023/12/09 04:10:54;;;;;;;194.30;83.45;;;-3.30;99.90;;;;;;5037890;28;20041;-53
2023/12/09 04:13:20;;;;;;;184.57;80.35;;;-3.30;99.90;;;;;;5037969;28;20094;-53
2023/12/09 04:15:47;;;;;;;193.93;82.85;;;-3.40;99.90;;;;;;5037277;28;20029;-53
2023/12/09 04:18:13;;;;;;;178.80;80.60;;;-3.40;99.90;;;;;;5037725;28;20478;-53
2023/12/09 04:20:38;;;;;;;188.65;84.63;;;-3.40;99.90;;;;;;5037725;28;20025;-53
2023/12/09 04:23:04;;;;;;;189.30;83.55;;;-3.40;99.90;;;;;;5037618;28;20038;-53
2023/12/09 04:25:31;;;;;;;186.90;81.63;;;-3.40;99.90;;;;;;5037538;28;20109;-53
2023/12/09 04:27:57;;;;;;;157.30;71.88;;;-3.50;99.90;;;;;;5037499;28;20037;-53
2023/12/09 04:30:23;;;;;;;153.55;67.78;;;-3.40;99.90;;;;;;5037482;28;20067;-53
2023/12/09 04:32:49;;;;;;;170.30;76.72;;;-3.40;99.90;;;;;;5037486;28;20049;-53
2023/12/09 04:35:15;;;;;;;145.90;64.47;;;-3.50;99.90;;;;;;5037375;28;20029;-53
2023/12/09 04:37:41;;;;;;;143.40;62.15;;;-3.40;99.90;;;;;;5037223;28;20103;-53
2023/12/09 04:40:10;;;;;;;151.50;66.38;;;-3.50;99.90;;;;;;5037313;28;20376;-53
2023/12/09 04:42:37;;;;;;;167.52;74.43;;;-3.40;99.90;;;;;;5037081;28;20034;-53
2023/12/09 04:45:05;;;;;;;171.20;75.68;;;-3.40;99.90;;;;;;5037294;28;20075;-53
2023/12/09 04:47:31;;;;;;;171.20;77.65;;;-3.40;99.90;;;;;;5037222;28;20399;-53
2023/12/09 04:49:57;;;;;;;169.70;78.15;;;-3.50;99.90;;;;;;5037227;28;20104;-53
2023/12/09 04:52:23;;;;;;;168.90;77.68;;;-3.50;99.90;;;;;;5037150;28;20087;-53
2023/12/09 04:54:49;;;;;;;187.05;82.57;;;-3.50;99.90;;;;;;5037155;28;20033;-53
2023/12/09 04:57:15;;;;;;;205.75;89.97;;;-3.50;99.90;;;;;;5037020;28;20029;-53
2023/12/09 04:59:43;;;;;;;204.30;92.38;;;-3.40;99.90;;;;;;5036918;28;20048;-53
2023/12/09 05:02:08;;;;;;;204.48;89.75;;;-3.40;99.90;;;;;;5037019;28;20071;-53
2023/12/09 05:04:34;;;;;;;197.75;86.38;;;-3.40;99.90;;;;;;5036864;28;20026;-53
2023/12/09 05:07:00;;;;;;;209.85;95.60;;;-3.50;99.90;;;;;;5036864;28;20097;-53
2023/12/09 05:09:26;;;;;;;207.73;91.97;;;-3.50;99.90;;;;;;5036933;28;20443;-53
2023/12/09 05:11:52;;;;;;;221.82;95.45;;;-3.50;99.90;;;;;;5036873;28;20423;-53
2023/12/09 05:14:18;;;;;;;228.30;98.20;;;-3.50;99.90;;;;;;5036853;28;20304;-53
2023/12/09 05:16:44;;;;;;;209.18;95.78;;;-3.40;99.90;;;;;;5036537;28;20029;-53
2023/12/09 05:19:10;;;;;;;228.55;104.25;;;-3.40;99.90;;;;;;5036523;28;20034;-53
2023/12/09 05:21:36;;;;;;;211.32;97.90;;;-3.40;99.90;;;;;;5036686;28;20471;-53
2023/12/09 05:24:04;;;;;;;200.38;92.13;;;-3.40;99.90;;;;;;5036648;28;20105;-53
2023/12/09 05:26:30;;;;;;;214.13;95.32;;;-3.30;99.90;;;;;;5035498;28;20029;-53
2023/12/09 05:28:56;;;;;;;200.68;91.43;;;-3.30;99.90;;;;;;5036450;28;20022;-53
2023/12/09 05:31:23;;;;;;;213.25;93.53;;;-3.20;99.90;;;;;;5036455;28;20068;-53
2023/12/09 05:33:49;;;;;;;231.80;100.95;;;-3.10;99.90;;;;;;5036318;28;20030;-53
2023/12/09 05:36:16;;;;;;;224.23;98.20;;;-3.10;99.90;;;;;;5036132;28;20028;-53
2023/12/09 05:38:42;;;;;;;260.00;113.78;;;-3.10;99.90;;;;;;5036336;28;20430;-53
2023/12/09 05:41:09;;;;;;;267.27;115.68;;;-3.00;99.90;;;;;;5036166;28;20025;-53
2023/12/09 05:43:38;;;;;;;226.63;102.85;;;-2.90;99.90;;;;;;5036048;28;20543;-53
2023/12/09 05:46:05;;;;;;;226.13;98.40;;;-2.90;99.90;;;;;;5036022;28;20488;-53
2023/12/09 05:48:34;;;;;;;214.13;92.65;;;-2.90;99.90;;;;;;5036186;28;20033;-53
2023/12/09 05:51:01;;;;;;;241.93;96.25;;;-2.80;99.90;;;;;;5036044;28;20037;-53
2023/12/09 05:53:26;;;;;;;269.55;103.63;;;-2.60;99.90;;;;;;5035982;28;20055;-53
2023/12/09 05:55:52;;;;;;;300.27;108.38;;;-2.60;99.90;;;;;;5036020;28;20547;-53
2023/12/09 05:58:18;;;;;;;293.33;110.35;;;-2.50;99.90;;;;;;5035906;28;20314;-53
2023/12/09 06:00:44;;;;;;;286.27;107.95;;;-2.50;99.90;;;;;;5035854;28;20025;-53
2023/12/09 06:03:11;;;;;;;299.88;107.45;;;-2.40;99.90;;;;;;5035956;28;20115;-53
2023/12/09 06:05:37;;;;;;;284.73;111.53;;;-2.30;99.90;;;;;;5035809;28;20052;-53
2023/12/09 06:08:03;;;;;;;264.83;111.60;;;-2.30;99.90;;;;;;5035730;28;20029;-53
2023/12/09 06:10:29;;;;;;;273.75;119.65;;;-2.20;99.90;;;;;;5035725;28;20049;-53
2023/12/09 06:12:54;;;;;;;276.38;121.63;;;-2.20;99.90;;;;;;5035857;28;20037;-53
2023/12/09 06:15:20;;;;;;;284.13;108.20;;;-2.20;99.90;;;;;;5035563;28;20029;-53
2023/12/09 06:17:46;;;;;;;289.25;105.80;;;-2.20;99.90;;;;;;5035587;28;20099;-53
2023/12/09 06:20:12;;;;;;;302.55;101.70;;;-2.20;99.90;;;;;;5035680;28;20029;-53
2023/12/09 06:22:38;;;;;;;331.60;108.82;;;-2.10;99.90;;;;;;5035654;28;20037;-53
2023/12/09 06:25:04;;;;;;;315.33;107.20;;;-2.10;99.90;;;;;;5035449;28;20032;-53
2023/12/09 06:27:30;;;;;;;315.27;105.95;;;-2.10;99.90;;;;;;5035392;28;20099;-53
2023/12/09 06:29:56;;;;;;;401.80;111.95;;;-2.20;99.90;;;;;;5035358;28;20487;-53
2023/12/09 06:32:22;;;;;;;390.75;124.93;;;-2.20;99.90;;;;;;5035461;28;20444;-53
2023/12/09 06:34:48;;;;;;;311.02;118.57;;;-2.10;99.90;;;;;;5035443;28;20364;-53
2023/12/09 06:37:14;;;;;;;425.88;113.30;;;-2.00;99.90;;;;;;5035629;28;20565;-53
2023/12/09 06:39:39;;;;;;;398.00;114.95;;;-2.00;99.90;;;;;;5035076;28;20488;-53
2023/12/09 06:42:05;;;;;;;451.70;114.13;;;-2.00;99.90;;;;;;5035239;28;20021;-53
2023/12/09 06:44:31;;;;;;;427.02;112.82;;;-1.90;99.90;;;;;;5035268;28;20455;-53
2023/12/09 06:46:57;;;;;;;504.92;122.40;;;-1.80;99.90;;;;;;5035217;28;20037;-53
2023/12/09 06:49:23;;;;;;;428.58;111.97;;;-1.90;99.90;;;;;;5035332;28;20116;-53
2023/12/09 06:51:49;;;;;;;564.28;124.68;;;-1.90;99.90;;;;;;5035271;28;20041;-53
2023/12/09 06:54:16;;;;;;;532.65;121.43;;;-1.90;99.90;;;;;;5035265;28;20039;-53
2023/12/09 06:56:42;;;;;;;753.60;143.23;;;-1.80;99.90;;;;;;5035194;28;20033;-53
2023/12/09 06:59:08;;;;;;;508.35;124.07;;;-2.00;99.90;;;;;;5035135;28;20021;-53
2023/12/09 07:01:34;;;;;;;555.17;125.78;;;-1.90;99.90;;;;;;5035159;28;20112;-53
2023/12/09 07:04:00;;;;;;;721.08;148.70;;;-1.90;99.90;;;;;;5035236;28;20033;-53
2023/12/09 07:06:29;;;;;;;677.50;139.38;;;-1.80;99.90;;;;;;5035100;28;20101;-53
2023/12/09 07:08:57;;;;;;;729.40;138.85;;;-1.80;99.90;;;;;;5035219;28;20029;-53
2023/12/09 07:11:23;;;;;;;679.88;134.30;;;-1.80;99.90;;;;;;5035026;28;20061;-53
2023/12/09 07:13:50;;;;;;;628.08;127.40;;;-1.80;99.90;;;;;;5035010;28;20467;-53
2023/12/09 07:16:16;;;;;;;543.45;131.20;;;-1.90;99.90;;;;;;5035100;28;20057;-53
2023/12/09 07:18:46;;;;;;;422.70;111.13;;;-1.90;99.90;;;;;;5035003;28;20064;-53
2023/12/09 07:21:13;;;;;;;405.45;105.78;;;-1.80;99.90;;;;;;5035156;28;20036;-53
2023/12/09 07:23:39;;;;;;;390.45;106.63;;;-1.80;99.90;;;;;;5034939;28;20021;-53
2023/12/09 07:26:05;;;;;;;405.95;111.90;;;-1.70;99.90;;;;;;5034899;28;20559;-53
2023/12/09 07:28:31;;;;;;;435.13;116.93;;;-1.50;99.90;;;;;;5034728;28;20030;-53
2023/12/09 07:30:57;;;;;;;422.77;113.85;;;-1.40;99.90;;;;;;5034968;28;20036;-53
2023/12/09 07:33:23;;;;;;;438.70;114.38;;;-1.40;99.90;;;;;;5034954;28;20030;-53
2023/12/09 07:35:49;;;;;;;507.15;118.50;;;-1.20;99.90;;;;;;5034866;28;20041;-53
2023/12/09 07:38:15;;;;;;;615.05;121.07;;;-1.20;99.90;;;;;;5034623;28;20476;-53
2023/12/09 07:40:41;;;;;;;521.95;123.88;;;-1.40;99.90;;;;;;5034652;28;20057;-53
2023/12/09 07:43:08;;;;;;;660.13;126.18;;;-1.50;99.90;;;;;;5034684;28;20059;-53
2023/12/09 07:45:34;;;;;;;454.98;117.85;;;-1.70;99.90;;;;;;5034759;28;20021;-53
2023/12/09 07:48:01;;;;;;;539.45;125.70;;;-1.60;99.90;;;;;;5034772;28;20040;-53
2023/12/09 07:50:27;;;;;;;576.53;125.30;;;-1.50;99.90;;;;;;5036530;28;20030;-53
2023/12/09 07:52:52;;;;;;;564.15;130.50;;;-1.30;99.90;;;;;;5038223;28;20040;-53
2023/12/09 07:55:18;;;;;;;560.40;121.80;;;-1.30;99.90;;;;;;5038165;28;20112;-53
2023/12/09 07:57:44;;;;;;;523.38;123.85;;;-1.30;99.90;;;;;;5038110;28;20033;-53
2023/12/09 08:00:11;;;;;;;524.40;120.53;;;-1.30;99.90;;;;;;5038461;28;20018;-53
2023/12/09 08:02:37;;;;;;;557.58;135.18;;;-1.50;99.90;;;;;;5038149;28;20041;-53
2023/12/09 08:05:03;;;;;;;850.38;154.77;;;-1.30;99.90;;;;;;5037962;28;20034;-53
2023/12/09 08:07:29;;;;;;;638.88;142.18;;;-1.40;99.90;;;;;;5038074;28;20029;-53
2023/12/09 08:09:54;;;;;;;716.90;138.90;;;-1.40;99.90;;;;;;5037912;28;20030;-53
2023/12/09 08:12:20;;;;;;;710.75;147.57;;;-1.50;99.90;;;;;;5038172;28;20048;-53
2023/12/09 08:14:46;;;;;;;801.58;147.25;;;-1.60;99.90;;;;;;5037925;28;20041;-53
2023/12/09 08:17:12;;;;;;;603.53;137.85;;;-1.60;99.90;;;;;;5037404;28;20033;-53
2023/12/09 08:19:38;;;;;;;599.80;140.85;;;-1.60;99.90;;;;;;5037717;28;20026;-53
2023/12/09 08:22:04;;;;;;;652.33;144.73;;;-1.40;99.90;;;;;;5037781;28;20026;-53
2023/12/09 08:24:30;;;;;;;751.20;146.80;;;-1.30;99.90;;;;;;5037471;28;20030;-53
2023/12/09 08:26:56;;;;;;;774.33;154.75;;;-1.50;99.90;;;;;;5037409;28;20120;-53
2023/12/09 08:29:22;;;;;;;874.47;184.63;;;-1.50;99.90;;;;;;5037654;28;20060;-53
2023/12/09 08:31:49;;;;;;;747.83;163.05;;;-1.40;99.90;;;;;;5037616;28;20029;-53
2023/12/09 08:34:16;;;;;;;765.22;174.52;;;-1.40;99.90;;;;;;5037441;28;20414;-53
2023/12/09 08:36:42;;;;;;;1029.85;186.13;;;-1.30;99.90;;;;;;5037373;28;20307;-53
2023/12/09 08:39:08;;;;;;;816.65;168.40;;;-1.20;99.90;;;;;;5037429;28;20643;-53
2023/12/09 08:41:34;;;;;;;877.33;181.05;;;-1.10;99.90;;;;;;5037212;28;20113;-53
2023/12/09 08:44:01;;;;;;;874.95;189.35;;;-1.00;99.90;;;;;;5037379;28;20487;-53
2023/12/09 08:46:27;;;;;;;785.35;184.48;;;-1.00;99.90;;;;;;5037188;28;20033;-53
2023/12/09 08:48:53;;;;;;;846.25;191.35;;;-0.90;99.90;;;;;;5037331;28;20029;-53
2023/12/09 08:51:19;;;;;;;864.35;192.05;;;-0.80;99.90;;;;;;5037238;28;20379;-53
2023/12/09 08:53:45;;;;;;;943.72;198.05;;;-0.80;99.90;;;;;;5037037;28;20487;-53
2023/12/09 08:56:11;;;;;;;775.08;184.27;;;-0.90;99.90;;;;;;5037363;28;20061;-53
2023/12/09 08:58:37;;;;;;;805.33;184.18;;;-0.70;99.90;;;;;;5037024;28;20033;-53
2023/12/09 09:01:03;;;;;;;886.83;188.57;;;-0.60;99.90;;;;;;5036912;28;20026;-53
2023/12/09 09:03:30;;;;;;;856.00;195.27;;;-0.80;99.90;;;;;;5036994;28;20025;-53
2023/12/09 09:05:56;;;;;;;930.13;224.52;;;-1.00;99.90;;;;;;5036982;28;20101;-53
2023/12/09 09:08:21;;;;;;;865.80;207.95;;;-0.90;99.90;;;;;;5036751;28;20033;-53
2023/12/09 09:10:48;;;;;;;919.92;213.23;;;-0.80;99.90;;;;;;5036736;28;20549;-53
2023/12/09 09:13:14;;;;;;;862.80;214.65;;;-0.70;99.90;;;;;;5036832;28;20036;-53
2023/12/09 09:15:40;;;;;;;863.50;209.25;;;-0.60;99.90;;;;;;5036706;28;20472;-53
2023/12/09 09:18:06;;;;;;;859.90;198.05;;;-0.70;99.90;;;;;;5036589;28;20033;-53
2023/12/09 09:20:32;;;;;;;882.20;210.85;;;-0.50;99.90;;;;;;5036709;28;20471;-53
2023/12/09 09:22:58;;;;;;;847.42;190.88;;;-0.50;99.90;;;;;;5036422;28;20025;-53
2023/12/09 09:25:25;;;;;;;794.90;190.55;;;-0.50;99.90;;;;;;5036426;28;20037;-53
2023/12/09 09:27:51;;;;;;;795.20;189.90;;;-0.40;99.90;;;;;;5036493;28;20032;-53
2023/12/09 09:30:19;;;;;;;836.22;206.45;;;-0.30;99.90;;;;;;5036434;28;20025;-53
2023/12/09 09:32:48;;;;;;;814.50;190.15;;;-0.30;99.90;;;;;;5036390;28;20048;-53
2023/12/09 09:35:14;;;;;;;806.83;187.10;;;-0.30;99.90;;;;;;5036199;28;20021;-53
2023/12/09 09:37:40;;;;;;;794.45;183.70;;;-0.40;99.90;;;;;;5036076;28;20040;-53
2023/12/09 09:40:07;;;;;;;736.80;176.45;;;-0.70;99.90;;;;;;5036219;28;20082;-53
2023/12/09 09:42:34;;;;;;;724.13;184.57;;;-0.60;99.90;;;;;;5036060;28;20481;-53
2023/12/09 09:45:23;;;;;;;714.10;182.63;;;-0.50;99.90;;;;;;5036270;28;20099;-53
2023/12/09 09:47:50;;;;;;;718.95;171.15;;;-0.30;99.90;;;;;;5036054;28;20037;-53
2023/12/09 09:50:24;;;;;;;749.85;192.82;;;-0.20;99.90;;;;;;5036141;28;20114;-53
2023/12/09 09:52:51;;;;;;;722.95;185.15;;;-0.20;99.90;;;;;;5036084;28;20041;-53
2023/12/09 09:55:19;;;;;;;697.35;183.60;;;-0.10;99.90;;;;;;5036050;28;20034;-53
2023/12/09 09:57:46;;;;;;;684.70;177.00;;;-0.20;99.90;;;;;;5035800;28;20086;-53
2023/12/09 10:00:15;;;;;;;688.30;182.07;;;0.00;99.90;;;;;;5035846;28;20038;-53
2023/12/09 10:02:48;;;;;;;678.28;183.02;;;0.00;99.90;;;;;;5035956;28;20026;-53
2023/12/09 10:05:17;;;;;;;662.10;173.88;;;0.10;99.90;;;;;;5035788;28;20033;-53
2023/12/09 10:07:43;;;;;;;623.28;170.95;;;0.00;99.90;;;;;;5035719;28;20026;-53
2023/12/09 10:10:10;;;;;;;609.78;164.40;;;0.00;99.90;;;;;;5035896;28;20039;-53
2023/12/09 10:12:36;;;;;;;565.20;153.43;;;-0.10;99.90;;;;;;5035247;28;20030;-53
2023/12/09 10:15:04;;;;;;;568.00;152.07;;;0.10;99.90;;;;;;5035546;28;20478;-53
2023/12/09 10:17:33;;;;;;;519.03;143.98;;;0.10;99.90;;;;;;5035471;28;20021;-53
2023/12/09 10:19:59;;;;;;;540.95;151.13;;;0.20;99.90;;;;;;5035703;28;20021;-53
2023/12/09 10:22:28;;;;;;;478.08;140.85;;;0.40;99.90;;;;;;5035616;28;20049;-53
2023/12/09 10:24:55;;;;;;;511.77;139.73;;;0.30;99.90;;;;;;5035414;28;20447;-53
2023/12/09 10:27:22;;;;;;;467.17;136.70;;;0.20;99.90;;;;;;5035529;28;20108;-53
2023/12/09 10:29:56;;;;;;;431.00;128.55;;;0.20;99.90;;;;;;5035372;28;20041;-53
2023/12/09 10:32:24;;;;;;;463.08;133.02;;;0.10;99.90;;;;;;5035355;28;20060;-53
2023/12/09 10:34:50;;;;;;;372.08;118.90;;;0.20;99.90;;;;;;5035481;28;20037;-53
2023/12/09 10:37:17;;;;;;;371.27;116.93;;;0.50;99.90;;;;;;5035301;28;20491;-53
2023/12/09 10:39:47;;;;;;;350.45;114.80;;;0.50;99.90;;;;;;5035408;28;20033;-53
2023/12/09 10:42:13;;;;;;;393.33;123.07;;;0.50;99.90;;;;;;5035187;28;20038;-53
2023/12/09 10:44:42;;;;;;;381.92;117.07;;;0.60;99.90;;;;;;5035242;28;20289;-53
2023/12/09 10:47:08;;;;;;;345.27;109.63;;;0.70;99.90;;;;;;5035306;28;20112;-53
2023/12/09 10:49:35;;;;;;;316.10;104.55;;;0.60;99.90;;;;;;5035356;28;20368;-53
2023/12/09 10:52:01;;;;;;;313.98;108.03;;;0.60;99.90;;;;;;5035245;28;20029;-53
2023/12/09 10:54:27;;;;;;;294.13;101.45;;;0.70;99.90;;;;;;5035169;28;20021;-53
2023/12/09 10:56:53;;;;;;;295.42;100.45;;;0.60;99.90;;;;;;5035090;28;20537;-53
2023/12/09 10:59:20;;;;;;;298.95;97.63;;;0.60;99.90;;;;;;5035180;28;20048;-53
2023/12/09 11:01:46;;;;;;;294.60;98.70;;;0.60;99.90;;;;;;5035257;28;20057;-53
2023/12/09 11:04:13;;;;;;;331.23;103.68;;;0.60;99.90;;;;;;5035148;28;20487;-53
2023/12/09 11:06:40;;;;;;;298.95;102.13;;;0.40;99.90;;;;;;5035094;28;20175;-53
2023/12/09 11:09:08;;;;;;;303.90;103.35;;;0.50;99.90;;;;;;5034923;28;20167;-53
2023/12/09 11:11:35;;;;;;;307.73;100.57;;;0.70;99.90;;;;;;5035193;28;20037;-53
2023/12/09 11:14:01;;;;;;;360.17;115.28;;;0.60;99.90;;;;;;5035140;28;20022;-53
2023/12/09 11:16:30;;;;;;;415.90;126.47;;;0.60;99.90;;;;;;5034995;28;20032;-53
2023/12/09 11:18:57;;;;;;;401.70;123.88;;;0.70;99.90;;;;;;5034950;28;20083;-53
2023/12/09 11:21:28;;;;;;;343.65;112.68;;;0.50;99.90;;;;;;5035067;28;20036;-53
2023/12/09 11:23:57;;;;;;;337.98;111.90;;;0.60;99.90;;;;;;5035264;28;20120;-53
2023/12/09 11:26:33;;;;;;;369.65;118.05;;;0.60;99.90;;;;;;5037932;28;20567;-53
2023/12/09 11:29:18;;;;;;;365.90;117.90;;;0.90;99.90;;;;;;5038885;28;20376;-53
2023/12/09 11:31:46;;;;;;;372.27;113.32;;;1.00;99.90;;;;;;5038809;28;20060;-53
2023/12/09 11:34:14;;;;;;;384.55;114.78;;;0.80;99.90;;;;;;5038577;28;20053;-53
2023/12/09 11:36:42;;;;;;;368.98;114.78;;;0.90;99.90;;;;;;5038502;28;20050;-53
2023/12/09 11:39:15;;;;;;;377.55;113.80;;;0.80;99.90;;;;;;5038518;28;20108;-53
2023/12/09 11:41:41;;;;;;;377.05;116.47;;;0.90;99.90;;;;;;5038462;28;20033;-53
2023/12/09 11:44:08;;;;;;;408.63;124.32;;;0.90;99.90;;;;;;5038475;28;20037;-53
2023/12/09 11:46:35;;;;;;;373.95;118.43;;;1.10;99.90;;;;;;5038503;28;20032;-53
2023/12/09 11:49:03;;;;;;;418.30;120.10;;;1.20;99.90;;;;;;5038374;28;20407;-53
2023/12/09 11:51:29;;;;;;;452.25;125.60;;;1.20;99.90;;;;;;5038181;28;20321;-53
2023/12/09 11:53:56;;;;;;;499.15;135.18;;;1.30;99.90;;;;;;5038302;28;20025;-53
2023/12/09 11:56:23;;;;;;;505.45;140.57;;;1.20;99.90;;;;;;5038279;28;20443;-53
2023/12/09 11:58:49;;;;;;;520.85;136.43;;;1.10;99.90;;;;;;5038168;28;20035;-53
2023/12/09 12:01:16;;;;;;;522.75;137.05;;;1.10;99.90;;;;;;5038114;28;20378;-53
2023/12/09 12:03:42;;;;;;;507.92;135.63;;;1.10;99.90;;;;;;5038332;28;20037;-53
2023/12/09 12:06:09;;;;;;;506.50;137.02;;;1.10;99.90;;;;;;5038018;28;20072;-53
2023/12/09 12:08:36;;;;;;;488.52;133.20;;;1.10;99.90;;;;;;5037919;28;20495;-53